Main page
METAR-TAF:

METAR-TAF

Airports :

Dortmund, Germany

Dortmund Airport

latitude: 51-31N, longitude: 007-37E, elevation: 127 m

Current weather observation

The report was made 19 minutes ago, at 07:50 UTC
Wind 3 kt from the East
Temperature -5°C
Humidity 79%
Pressure 1027 hPa
Visibility 10 km or more
no clouds below 1500 m and no cumulonimbus

METAR: EDLW 040750Z 10003KT CAVOK M05/M08 Q1027

Time: 09:09 (08:09 UTC)

Forecast

The report was made 2 hours and 49 minutes ago, at 05:20 UTC
Forecast valid from 04 at 06 UTC to 05 at 06 UTC
Wind 5 kt from the East
Visibility 10 km or more
no clouds below 1500 m and no cumulonimbus

TAF: EDLW 040520Z 0406/0506 09005KT CAVOK

Weather observations and forecasts of more than 4000 airports (METAR and TAF reports).

The available stations are represented by yellow and red dots on the map.

Hover mouse over dot to see the name of the station.

Then click to see weather observations and forecasts.

To change the map : click on the green buttons with a black cross to zoom in, on the green button with a dash to zoom out, or on the green arrows for adjacent maps.


METAR-TAF: